sensor_id;sensor_type;location;lat;lon;timestamp;P1;durP1;ratioP1;P2;durP2;ratioP2
44328;SDS011;30039;51.462;6.892;2022-09-09T00:02:22;1.38;;;0.60;;
44328;SDS011;30039;51.462;6.892;2022-09-09T00:07:58;1.15;;;0.43;;
44328;SDS011;30039;51.462;6.892;2022-09-09T00:10:47;1.20;;;0.63;;
44328;SDS011;30039;51.462;6.892;2022-09-09T00:13:38;2.65;;;0.80;;
44328;SDS011;30039;51.462;6.892;2022-09-09T00:16:27;1.15;;;0.60;;
44328;SDS011;30039;51.462;6.892;2022-09-09T00:19:50;3.15;;;1.00;;
44328;SDS011;30039;51.462;6.892;2022-09-09T00:22:29;1.17;;;0.60;;
44328;SDS011;30039;51.462;6.892;2022-09-09T00:25:22;1.00;;;0.70;;
44328;SDS011;30039;51.462;6.892;2022-09-09T00:28:19;1.90;;;0.65;;
44328;SDS011;30039;51.462;6.892;2022-09-09T00:31:39;3.65;;;0.73;;
44328;SDS011;30039;51.462;6.892;2022-09-09T00:34:18;2.05;;;0.60;;
44328;SDS011;30039;51.462;6.892;2022-09-09T00:37:05;0.90;;;0.60;;
44328;SDS011;30039;51.462;6.892;2022-09-09T00:39:50;1.90;;;0.73;;
44328;SDS011;30039;51.462;6.892;2022-09-09T00:42:43;1.20;;;0.68;;
44328;SDS011;30039;51.462;6.892;2022-09-09T00:51:15;0.98;;;0.70;;
44328;SDS011;30039;51.462;6.892;2022-09-09T00:54:19;1.33;;;0.70;;
44328;SDS011;30039;51.462;6.892;2022-09-09T01:03:08;1.90;;;0.60;;
44328;SDS011;30039;51.462;6.892;2022-09-09T01:17:58;1.50;;;0.60;;
44328;SDS011;30039;51.462;6.892;2022-09-09T01:20:59;2.03;;;0.73;;
44328;SDS011;30039;51.462;6.892;2022-09-09T01:26:46;1.77;;;0.73;;
44328;SDS011;30039;51.462;6.892;2022-09-09T01:29:32;2.75;;;0.85;;
44328;SDS011;30039;51.462;6.892;2022-09-09T01:38:43;2.40;;;1.00;;
44328;SDS011;30039;51.462;6.892;2022-09-09T01:41:30;1.20;;;0.70;;
44328;SDS011;30039;51.462;6.892;2022-09-09T01:44:17;1.92;;;0.77;;
44328;SDS011;30039;51.462;6.892;2022-09-09T01:47:04;2.70;;;0.82;;
44328;SDS011;30039;51.462;6.892;2022-09-09T01:49:50;1.55;;;0.70;;
44328;SDS011;30039;51.462;6.892;2022-09-09T01:52:36;2.13;;;0.82;;
44328;SDS011;30039;51.462;6.892;2022-09-09T01:55:29;2.00;;;1.00;;
44328;SDS011;30039;51.462;6.892;2022-09-09T01:58:26;1.47;;;0.90;;
44328;SDS011;30039;51.462;6.892;2022-09-09T02:01:39;4.07;;;1.08;;
44328;SDS011;30039;51.462;6.892;2022-09-09T02:10:29;2.03;;;0.90;;
44328;SDS011;30039;51.462;6.892;2022-09-09T02:13:13;1.38;;;0.90;;
44328;SDS011;30039;51.462;6.892;2022-09-09T02:21:50;2.60;;;0.73;;
44328;SDS011;30039;51.462;6.892;2022-09-09T02:24:37;2.83;;;1.00;;
44328;SDS011;30039;51.462;6.892;2022-09-09T02:27:24;1.98;;;0.70;;
44328;SDS011;30039;51.462;6.892;2022-09-09T02:30:10;3.45;;;0.88;;
44328;SDS011;30039;51.462;6.892;2022-09-09T02:32:56;4.28;;;1.02;;
44328;SDS011;30039;51.462;6.892;2022-09-09T02:35:43;3.55;;;1.00;;
44328;SDS011;30039;51.462;6.892;2022-09-09T02:38:29;4.60;;;0.80;;
44328;SDS011;30039;51.462;6.892;2022-09-09T02:41:18;1.90;;;0.82;;
44328;SDS011;30039;51.462;6.892;2022-09-09T02:44:05;3.05;;;0.98;;
44328;SDS011;30039;51.462;6.892;2022-09-09T02:58:33;2.63;;;0.80;;
44328;SDS011;30039;51.462;6.892;2022-09-09T03:01:20;2.15;;;1.00;;
44328;SDS011;30039;51.462;6.892;2022-09-09T03:04:05;3.15;;;0.90;;
44328;SDS011;30039;51.462;6.892;2022-09-09T03:06:51;4.30;;;0.90;;
44328;SDS011;30039;51.462;6.892;2022-09-09T03:09:37;2.83;;;1.10;;
44328;SDS011;30039;51.462;6.892;2022-09-09T03:12:22;2.17;;;0.90;;
44328;SDS011;30039;51.462;6.892;2022-09-09T03:15:08;1.27;;;0.77;;
44328;SDS011;30039;51.462;6.892;2022-09-09T03:17:55;4.78;;;1.30;;
44328;SDS011;30039;51.462;6.892;2022-09-09T03:20:43;2.22;;;0.80;;
44328;SDS011;30039;51.462;6.892;2022-09-09T03:23:29;2.83;;;1.30;;
44328;SDS011;30039;51.462;6.892;2022-09-09T03:26:14;3.05;;;1.10;;
44328;SDS011;30039;51.462;6.892;2022-09-09T03:29:00;1.92;;;0.93;;
44328;SDS011;30039;51.462;6.892;2022-09-09T03:31:46;2.42;;;1.27;;
44328;SDS011;30039;51.462;6.892;2022-09-09T03:34:32;2.55;;;1.33;;
44328;SDS011;30039;51.462;6.892;2022-09-09T03:37:18;2.28;;;1.20;;
44328;SDS011;30039;51.462;6.892;2022-09-09T03:40:04;2.50;;;1.10;;
44328;SDS011;30039;51.462;6.892;2022-09-09T03:42:49;5.05;;;1.27;;
44328;SDS011;30039;51.462;6.892;2022-09-09T03:45:35;4.47;;;1.20;;
44328;SDS011;30039;51.462;6.892;2022-09-09T03:48:21;2.03;;;1.33;;
44328;SDS011;30039;51.462;6.892;2022-09-09T03:51:07;3.15;;;1.08;;
44328;SDS011;30039;51.462;6.892;2022-09-09T03:53:52;3.53;;;1.33;;
44328;SDS011;30039;51.462;6.892;2022-09-09T03:56:40;2.63;;;1.27;;
44328;SDS011;30039;51.462;6.892;2022-09-09T03:59:28;2.05;;;1.00;;
44328;SDS011;30039;51.462;6.892;2022-09-09T04:02:13;2.85;;;1.05;;
44328;SDS011;30039;51.462;6.892;2022-09-09T04:04:59;3.20;;;1.10;;
44328;SDS011;30039;51.462;6.892;2022-09-09T04:07:45;7.82;;;1.20;;
44328;SDS011;30039;51.462;6.892;2022-09-09T04:10:30;4.15;;;1.20;;
44328;SDS011;30039;51.462;6.892;2022-09-09T04:13:17;2.67;;;1.08;;
44328;SDS011;30039;51.462;6.892;2022-09-09T04:16:04;2.25;;;1.27;;
44328;SDS011;30039;51.462;6.892;2022-09-09T04:18:51;2.65;;;1.05;;
44328;SDS011;30039;51.462;6.892;2022-09-09T04:21:38;3.03;;;1.10;;
44328;SDS011;30039;51.462;6.892;2022-09-09T04:24:27;3.72;;;1.20;;
44328;SDS011;30039;51.462;6.892;2022-09-09T04:27:14;2.78;;;1.13;;
44328;SDS011;30039;51.462;6.892;2022-09-09T04:30:01;4.18;;;1.23;;
44328;SDS011;30039;51.462;6.892;2022-09-09T04:32:46;3.30;;;1.20;;
44328;SDS011;30039;51.462;6.892;2022-09-09T04:35:32;4.63;;;1.42;;
44328;SDS011;30039;51.462;6.892;2022-09-09T04:38:18;1.80;;;1.05;;
44328;SDS011;30039;51.462;6.892;2022-09-09T04:41:05;6.13;;;1.30;;
44328;SDS011;30039;51.462;6.892;2022-09-09T04:43:51;6.03;;;1.55;;
44328;SDS011;30039;51.462;6.892;2022-09-09T04:46:38;4.95;;;1.38;;
44328;SDS011;30039;51.462;6.892;2022-09-09T04:49:26;2.60;;;1.20;;
44328;SDS011;30039;51.462;6.892;2022-09-09T04:52:12;3.10;;;1.05;;
44328;SDS011;30039;51.462;6.892;2022-09-09T04:54:58;7.07;;;1.63;;
44328;SDS011;30039;51.462;6.892;2022-09-09T04:57:43;5.93;;;1.52;;
44328;SDS011;30039;51.462;6.892;2022-09-09T05:00:29;1.83;;;1.10;;
44328;SDS011;30039;51.462;6.892;2022-09-09T05:03:15;4.65;;;1.10;;
44328;SDS011;30039;51.462;6.892;2022-09-09T05:06:08;4.85;;;1.55;;
44328;SDS011;30039;51.462;6.892;2022-09-09T05:08:54;2.45;;;1.10;;
44328;SDS011;30039;51.462;6.892;2022-09-09T05:11:40;3.67;;;1.05;;
44328;SDS011;30039;51.462;6.892;2022-09-09T05:14:27;3.65;;;1.23;;
44328;SDS011;30039;51.462;6.892;2022-09-09T05:17:14;4.00;;;1.40;;
44328;SDS011;30039;51.462;6.892;2022-09-09T05:20:00;3.95;;;1.60;;
44328;SDS011;30039;51.462;6.892;2022-09-09T05:22:47;3.10;;;1.15;;
44328;SDS011;30039;51.462;6.892;2022-09-09T05:25:33;4.97;;;1.40;;
44328;SDS011;30039;51.462;6.892;2022-09-09T05:28:24;2.60;;;1.30;;
44328;SDS011;30039;51.462;6.892;2022-09-09T05:31:18;2.25;;;1.08;;
44328;SDS011;30039;51.462;6.892;2022-09-09T05:34:04;3.25;;;1.30;;
44328;SDS011;30039;51.462;6.892;2022-09-09T05:36:50;3.97;;;1.23;;
44328;SDS011;30039;51.462;6.892;2022-09-09T05:39:37;9.73;;;1.48;;
44328;SDS011;30039;51.462;6.892;2022-09-09T05:42:23;5.47;;;1.55;;
44328;SDS011;30039;51.462;6.892;2022-09-09T05:45:10;4.18;;;1.63;;
44328;SDS011;30039;51.462;6.892;2022-09-09T05:47:55;4.68;;;1.40;;
44328;SDS011;30039;51.462;6.892;2022-09-09T05:50:42;5.28;;;1.30;;
44328;SDS011;30039;51.462;6.892;2022-09-09T05:53:29;3.70;;;1.10;;
44328;SDS011;30039;51.462;6.892;2022-09-09T05:56:20;3.25;;;1.45;;
44328;SDS011;30039;51.462;6.892;2022-09-09T05:59:07;4.47;;;1.50;;
44328;SDS011;30039;51.462;6.892;2022-09-09T06:01:53;4.25;;;1.20;;
44328;SDS011;30039;51.462;6.892;2022-09-09T06:04:39;5.45;;;1.30;;
44328;SDS011;30039;51.462;6.892;2022-09-09T06:07:25;4.82;;;1.83;;
44328;SDS011;30039;51.462;6.892;2022-09-09T06:10:11;3.72;;;1.25;;
44328;SDS011;30039;51.462;6.892;2022-09-09T06:12:59;5.95;;;1.70;;
44328;SDS011;30039;51.462;6.892;2022-09-09T06:15:51;3.00;;;1.33;;
44328;SDS011;30039;51.462;6.892;2022-09-09T06:18:37;3.40;;;1.33;;
44328;SDS011;30039;51.462;6.892;2022-09-09T06:21:27;4.80;;;1.45;;
44328;SDS011;30039;51.462;6.892;2022-09-09T06:24:13;7.70;;;1.52;;
44328;SDS011;30039;51.462;6.892;2022-09-09T06:27:02;4.30;;;1.30;;
44328;SDS011;30039;51.462;6.892;2022-09-09T06:29:48;3.42;;;1.65;;
44328;SDS011;30039;51.462;6.892;2022-09-09T06:32:33;3.75;;;1.55;;
44328;SDS011;30039;51.462;6.892;2022-09-09T06:35:20;2.78;;;1.23;;
44328;SDS011;30039;51.462;6.892;2022-09-09T06:38:06;4.88;;;1.63;;
44328;SDS011;30039;51.462;6.892;2022-09-09T06:40:55;3.22;;;1.27;;
44328;SDS011;30039;51.462;6.892;2022-09-09T06:43:41;3.15;;;1.20;;
44328;SDS011;30039;51.462;6.892;2022-09-09T06:46:27;3.45;;;1.23;;
44328;SDS011;30039;51.462;6.892;2022-09-09T06:49:13;8.40;;;1.50;;
44328;SDS011;30039;51.462;6.892;2022-09-09T06:51:59;5.13;;;1.52;;
44328;SDS011;30039;51.462;6.892;2022-09-09T06:54:45;4.15;;;1.38;;
44328;SDS011;30039;51.462;6.892;2022-09-09T06:57:30;5.15;;;1.85;;
44328;SDS011;30039;51.462;6.892;2022-09-09T07:00:17;6.53;;;1.60;;
44328;SDS011;30039;51.462;6.892;2022-09-09T07:03:03;2.65;;;1.30;;
44328;SDS011;30039;51.462;6.892;2022-09-09T07:05:56;6.25;;;1.45;;
44328;SDS011;30039;51.462;6.892;2022-09-09T07:08:41;3.55;;;1.52;;
44328;SDS011;30039;51.462;6.892;2022-09-09T07:11:28;7.28;;;1.67;;
44328;SDS011;30039;51.462;6.892;2022-09-09T07:14:14;4.32;;;1.30;;
44328;SDS011;30039;51.462;6.892;2022-09-09T07:17:00;5.45;;;1.50;;
44328;SDS011;30039;51.462;6.892;2022-09-09T07:19:45;6.00;;;1.20;;
44328;SDS011;30039;51.462;6.892;2022-09-09T07:22:31;4.30;;;1.52;;
44328;SDS011;30039;51.462;6.892;2022-09-09T07:25:18;3.45;;;1.17;;
44328;SDS011;30039;51.462;6.892;2022-09-09T07:28:04;3.50;;;1.33;;
44328;SDS011;30039;51.462;6.892;2022-09-09T07:30:56;4.63;;;1.25;;
44328;SDS011;30039;51.462;6.892;2022-09-09T07:33:43;3.42;;;1.30;;
44328;SDS011;30039;51.462;6.892;2022-09-09T07:36:30;5.15;;;1.13;;
44328;SDS011;30039;51.462;6.892;2022-09-09T07:39:16;8.23;;;1.58;;
44328;SDS011;30039;51.462;6.892;2022-09-09T07:42:07;4.55;;;1.35;;
44328;SDS011;30039;51.462;6.892;2022-09-09T07:44:56;4.35;;;1.10;;
44328;SDS011;30039;51.462;6.892;2022-09-09T07:47:42;4.43;;;1.30;;
44328;SDS011;30039;51.462;6.892;2022-09-09T07:50:28;3.00;;;1.08;;
44328;SDS011;30039;51.462;6.892;2022-09-09T07:53:13;3.55;;;1.20;;
44328;SDS011;30039;51.462;6.892;2022-09-09T07:56:06;6.25;;;1.30;;
44328;SDS011;30039;51.462;6.892;2022-09-09T07:58:53;2.63;;;1.13;;
44328;SDS011;30039;51.462;6.892;2022-09-09T08:01:40;5.22;;;1.20;;
44328;SDS011;30039;51.462;6.892;2022-09-09T08:04:26;5.63;;;1.52;;
44328;SDS011;30039;51.462;6.892;2022-09-09T08:07:13;6.32;;;1.35;;
44328;SDS011;30039;51.462;6.892;2022-09-09T08:09:59;5.93;;;1.20;;
44328;SDS011;30039;51.462;6.892;2022-09-09T08:12:44;5.45;;;1.60;;
44328;SDS011;30039;51.462;6.892;2022-09-09T08:15:31;3.80;;;1.05;;
44328;SDS011;30039;51.462;6.892;2022-09-09T08:18:17;3.60;;;1.13;;
44328;SDS011;30039;51.462;6.892;2022-09-09T08:21:12;5.32;;;1.30;;
44328;SDS011;30039;51.462;6.892;2022-09-09T08:23:58;4.03;;;1.30;;
44328;SDS011;30039;51.462;6.892;2022-09-09T08:26:45;4.53;;;1.20;;
44328;SDS011;30039;51.462;6.892;2022-09-09T08:29:31;3.20;;;1.10;;
44328;SDS011;30039;51.462;6.892;2022-09-09T08:32:18;7.28;;;1.40;;
44328;SDS011;30039;51.462;6.892;2022-09-09T08:35:05;5.13;;;1.52;;
44328;SDS011;30039;51.462;6.892;2022-09-09T08:37:53;2.95;;;1.02;;
44328;SDS011;30039;51.462;6.892;2022-09-09T08:40:39;2.67;;;0.90;;
44328;SDS011;30039;51.462;6.892;2022-09-09T08:43:28;3.92;;;1.20;;
44328;SDS011;30039;51.462;6.892;2022-09-09T08:46:51;4.03;;;1.10;;
44328;SDS011;30039;51.462;6.892;2022-09-09T08:52:26;6.00;;;1.10;;
44328;SDS011;30039;51.462;6.892;2022-09-09T08:58:17;5.15;;;0.93;;
44328;SDS011;30039;51.462;6.892;2022-09-09T09:04:00;3.03;;;0.70;;
44328;SDS011;30039;51.462;6.892;2022-09-09T09:06:50;3.58;;;1.20;;
44328;SDS011;30039;51.462;6.892;2022-09-09T09:09:50;2.10;;;0.80;;
44328;SDS011;30039;51.462;6.892;2022-09-09T09:12:44;2.60;;;0.70;;
44328;SDS011;30039;51.462;6.892;2022-09-09T09:15:33;4.60;;;1.10;;
44328;SDS011;30039;51.462;6.892;2022-09-09T09:18:21;4.10;;;1.13;;
44328;SDS011;30039;51.462;6.892;2022-09-09T09:21:10;2.97;;;1.00;;
44328;SDS011;30039;51.462;6.892;2022-09-09T09:23:58;3.10;;;1.00;;
44328;SDS011;30039;51.462;6.892;2022-09-09T09:26:43;1.52;;;0.82;;
44328;SDS011;30039;51.462;6.892;2022-09-09T09:29:29;3.95;;;1.30;;
44328;SDS011;30039;51.462;6.892;2022-09-09T09:32:16;2.50;;;0.93;;
44328;SDS011;30039;51.462;6.892;2022-09-09T09:35:06;3.80;;;0.95;;
44328;SDS011;30039;51.462;6.892;2022-09-09T09:37:55;4.40;;;1.10;;
44328;SDS011;30039;51.462;6.892;2022-09-09T09:40:48;4.88;;;0.90;;
44328;SDS011;30039;51.462;6.892;2022-09-09T09:43:35;2.70;;;0.82;;
44328;SDS011;30039;51.462;6.892;2022-09-09T09:46:22;4.63;;;1.20;;
44328;SDS011;30039;51.462;6.892;2022-09-09T09:49:11;3.83;;;1.33;;
44328;SDS011;30039;51.462;6.892;2022-09-09T09:52:02;2.95;;;0.93;;
44328;SDS011;30039;51.462;6.892;2022-09-09T09:54:49;4.57;;;1.08;;
44328;SDS011;30039;51.462;6.892;2022-09-09T09:57:35;4.28;;;1.25;;
44328;SDS011;30039;51.462;6.892;2022-09-09T10:00:22;7.65;;;1.20;;
44328;SDS011;30039;51.462;6.892;2022-09-09T10:03:28;3.35;;;1.00;;
44328;SDS011;30039;51.462;6.892;2022-09-09T10:06:14;2.55;;;1.20;;
44328;SDS011;30039;51.462;6.892;2022-09-09T10:09:01;2.03;;;0.90;;
44328;SDS011;30039;51.462;6.892;2022-09-09T10:14:43;3.40;;;1.13;;
44328;SDS011;30039;51.462;6.892;2022-09-09T10:17:38;2.90;;;1.35;;
44328;SDS011;30039;51.462;6.892;2022-09-09T10:23:46;4.22;;;1.08;;
44328;SDS011;30039;51.462;6.892;2022-09-09T10:26:38;2.65;;;0.75;;
44328;SDS011;30039;51.462;6.892;2022-09-09T10:35:04;5.35;;;1.10;;
44328;SDS011;30039;51.462;6.892;2022-09-09T10:55:44;3.15;;;0.70;;
44328;SDS011;30039;51.462;6.892;2022-09-09T11:01:40;2.42;;;1.13;;
44328;SDS011;30039;51.462;6.892;2022-09-09T11:04:32;2.88;;;0.82;;
44328;SDS011;30039;51.462;6.892;2022-09-09T11:08:02;2.70;;;0.90;;
44328;SDS011;30039;51.462;6.892;2022-09-09T11:11:03;3.08;;;1.00;;
44328;SDS011;30039;51.462;6.892;2022-09-09T11:16:36;2.65;;;0.88;;
44328;SDS011;30039;51.462;6.892;2022-09-09T11:19:35;1.55;;;1.00;;
44328;SDS011;30039;51.462;6.892;2022-09-09T11:22:34;3.35;;;1.08;;
44328;SDS011;30039;51.462;6.892;2022-09-09T11:25:26;4.30;;;1.23;;
44328;SDS011;30039;51.462;6.892;2022-09-09T11:40:23;2.20;;;0.88;;
44328;SDS011;30039;51.462;6.892;2022-09-09T11:43:13;2.63;;;0.82;;
44328;SDS011;30039;51.462;6.892;2022-09-09T11:46:01;3.47;;;0.95;;
44328;SDS011;30039;51.462;6.892;2022-09-09T11:49:01;2.65;;;0.90;;
44328;SDS011;30039;51.462;6.892;2022-09-09T11:51:47;2.28;;;0.80;;
44328;SDS011;30039;51.462;6.892;2022-09-09T11:54:33;2.20;;;0.90;;
44328;SDS011;30039;51.462;6.892;2022-09-09T11:57:36;4.97;;;0.95;;
44328;SDS011;30039;51.462;6.892;2022-09-09T12:06:29;1.90;;;0.60;;
44328;SDS011;30039;51.462;6.892;2022-09-09T12:09:18;2.00;;;0.77;;
44328;SDS011;30039;51.462;6.892;2022-09-09T12:12:27;3.03;;;0.93;;
44328;SDS011;30039;51.462;6.892;2022-09-09T12:17:57;2.80;;;0.85;;
44328;SDS011;30039;51.462;6.892;2022-09-09T12:20:51;2.92;;;0.80;;
44328;SDS011;30039;51.462;6.892;2022-09-09T12:23:40;1.60;;;0.73;;
44328;SDS011;30039;51.462;6.892;2022-09-09T12:34:55;2.63;;;0.90;;
44328;SDS011;30039;51.462;6.892;2022-09-09T12:37:55;5.22;;;0.90;;
44328;SDS011;30039;51.462;6.892;2022-09-09T12:40:43;2.33;;;0.68;;
44328;SDS011;30039;51.462;6.892;2022-09-09T12:43:38;2.20;;;1.10;;
44328;SDS011;30039;51.462;6.892;2022-09-09T12:46:32;2.47;;;1.00;;
44328;SDS011;30039;51.462;6.892;2022-09-09T12:49:26;2.80;;;0.95;;
44328;SDS011;30039;51.462;6.892;2022-09-09T12:52:14;3.55;;;0.80;;
44328;SDS011;30039;51.462;6.892;2022-09-09T12:55:03;2.28;;;0.90;;
44328;SDS011;30039;51.462;6.892;2022-09-09T12:57:50;3.45;;;0.75;;
44328;SDS011;30039;51.462;6.892;2022-09-09T13:00:37;1.33;;;0.60;;
44328;SDS011;30039;51.462;6.892;2022-09-09T13:03:22;4.13;;;1.20;;
44328;SDS011;30039;51.462;6.892;2022-09-09T13:06:12;3.03;;;1.30;;
44328;SDS011;30039;51.462;6.892;2022-09-09T13:09:00;3.67;;;1.40;;
44328;SDS011;30039;51.462;6.892;2022-09-09T13:11:47;3.53;;;1.70;;
44328;SDS011;30039;51.462;6.892;2022-09-09T13:14:35;6.10;;;1.45;;
44328;SDS011;30039;51.462;6.892;2022-09-09T13:17:26;3.53;;;1.98;;
44328;SDS011;30039;51.462;6.892;2022-09-09T13:20:18;5.53;;;1.52;;
44328;SDS011;30039;51.462;6.892;2022-09-09T13:23:04;3.72;;;1.13;;
44328;SDS011;30039;51.462;6.892;2022-09-09T13:25:57;4.40;;;1.30;;
44328;SDS011;30039;51.462;6.892;2022-09-09T13:28:44;2.88;;;1.05;;
44328;SDS011;30039;51.462;6.892;2022-09-09T13:31:33;2.67;;;0.98;;
44328;SDS011;30039;51.462;6.892;2022-09-09T13:43:03;4.90;;;0.95;;
44328;SDS011;30039;51.462;6.892;2022-09-09T13:45:57;1.15;;;0.80;;
44328;SDS011;30039;51.462;6.892;2022-09-09T13:48:53;2.67;;;1.05;;
44328;SDS011;30039;51.462;6.892;2022-09-09T13:51:40;3.75;;;1.02;;
44328;SDS011;30039;51.462;6.892;2022-09-09T13:54:26;0.90;;;0.70;;
44328;SDS011;30039;51.462;6.892;2022-09-09T13:57:17;1.70;;;0.75;;
44328;SDS011;30039;51.462;6.892;2022-09-09T14:00:04;2.08;;;0.85;;
44328;SDS011;30039;51.462;6.892;2022-09-09T14:02:52;3.78;;;1.00;;
44328;SDS011;30039;51.462;6.892;2022-09-09T14:05:40;4.47;;;1.10;;
44328;SDS011;30039;51.462;6.892;2022-09-09T14:08:26;4.00;;;1.15;;
44328;SDS011;30039;51.462;6.892;2022-09-09T14:11:14;4.00;;;1.33;;
44328;SDS011;30039;51.462;6.892;2022-09-09T14:13:59;4.13;;;1.40;;
44328;SDS011;30039;51.462;6.892;2022-09-09T14:16:46;2.55;;;1.13;;
44328;SDS011;30039;51.462;6.892;2022-09-09T14:19:32;3.85;;;1.05;;
44328;SDS011;30039;51.462;6.892;2022-09-09T14:22:18;1.75;;;0.88;;
44328;SDS011;30039;51.462;6.892;2022-09-09T14:25:03;2.80;;;1.10;;
44328;SDS011;30039;51.462;6.892;2022-09-09T14:27:50;2.42;;;1.10;;
44328;SDS011;30039;51.462;6.892;2022-09-09T14:30:37;2.25;;;0.80;;
44328;SDS011;30039;51.462;6.892;2022-09-09T14:33:24;2.92;;;1.13;;
44328;SDS011;30039;51.462;6.892;2022-09-09T14:36:10;2.13;;;0.77;;
44328;SDS011;30039;51.462;6.892;2022-09-09T14:38:56;6.28;;;1.00;;
44328;SDS011;30039;51.462;6.892;2022-09-09T14:41:42;1.60;;;0.77;;
44328;SDS011;30039;51.462;6.892;2022-09-09T14:44:28;2.28;;;0.88;;
44328;SDS011;30039;51.462;6.892;2022-09-09T14:47:14;3.15;;;1.00;;
44328;SDS011;30039;51.462;6.892;2022-09-09T14:50:00;1.73;;;0.90;;
44328;SDS011;30039;51.462;6.892;2022-09-09T14:52:48;3.03;;;0.50;;
44328;SDS011;30039;51.462;6.892;2022-09-09T14:55:34;1.20;;;0.57;;
44328;SDS011;30039;51.462;6.892;2022-09-09T14:58:20;2.22;;;0.88;;
44328;SDS011;30039;51.462;6.892;2022-09-09T15:01:15;2.80;;;0.57;;
44328;SDS011;30039;51.462;6.892;2022-09-09T15:04:03;1.10;;;0.60;;
44328;SDS011;30039;51.462;6.892;2022-09-09T15:06:49;1.73;;;0.65;;
44328;SDS011;30039;51.462;6.892;2022-09-09T15:09:37;2.90;;;0.50;;
44328;SDS011;30039;51.462;6.892;2022-09-09T15:12:23;1.42;;;0.70;;
44328;SDS011;30039;51.462;6.892;2022-09-09T15:15:09;2.40;;;0.80;;
44328;SDS011;30039;51.462;6.892;2022-09-09T15:17:55;2.08;;;1.08;;
44328;SDS011;30039;51.462;6.892;2022-09-09T15:20:44;3.83;;;1.27;;
44328;SDS011;30039;51.462;6.892;2022-09-09T15:23:32;4.68;;;1.50;;
44328;SDS011;30039;51.462;6.892;2022-09-09T15:26:18;1.77;;;1.05;;
44328;SDS011;30039;51.462;6.892;2022-09-09T15:29:04;2.33;;;0.90;;
44328;SDS011;30039;51.462;6.892;2022-09-09T15:31:49;1.92;;;1.00;;
44328;SDS011;30039;51.462;6.892;2022-09-09T15:34:35;1.83;;;0.80;;
44328;SDS011;30039;51.462;6.892;2022-09-09T15:37:21;2.00;;;0.90;;
44328;SDS011;30039;51.462;6.892;2022-09-09T15:40:07;2.75;;;0.98;;
44328;SDS011;30039;51.462;6.892;2022-09-09T15:42:53;1.65;;;0.85;;
44328;SDS011;30039;51.462;6.892;2022-09-09T15:45:39;1.27;;;0.60;;
44328;SDS011;30039;51.462;6.892;2022-09-09T15:48:31;1.10;;;0.70;;
44328;SDS011;30039;51.462;6.892;2022-09-09T15:51:19;1.38;;;0.90;;
44328;SDS011;30039;51.462;6.892;2022-09-09T15:54:05;2.47;;;1.08;;
44328;SDS011;30039;51.462;6.892;2022-09-09T15:56:55;1.15;;;0.45;;
44328;SDS011;30039;51.462;6.892;2022-09-09T15:59:41;1.60;;;0.63;;
44328;SDS011;30039;51.462;6.892;2022-09-09T16:02:27;2.17;;;0.77;;
44328;SDS011;30039;51.462;6.892;2022-09-09T16:05:15;2.65;;;0.93;;
44328;SDS011;30039;51.462;6.892;2022-09-09T16:08:01;1.45;;;0.60;;
44328;SDS011;30039;51.462;6.892;2022-09-09T16:10:46;1.67;;;0.70;;
44328;SDS011;30039;51.462;6.892;2022-09-09T16:13:34;1.77;;;0.63;;
44328;SDS011;30039;51.462;6.892;2022-09-09T16:16:21;1.13;;;0.65;;
44328;SDS011;30039;51.462;6.892;2022-09-09T16:19:10;2.03;;;0.70;;
44328;SDS011;30039;51.462;6.892;2022-09-09T16:21:57;2.38;;;0.60;;
44328;SDS011;30039;51.462;6.892;2022-09-09T16:24:43;2.95;;;0.77;;
44328;SDS011;30039;51.462;6.892;2022-09-09T16:27:30;2.65;;;0.90;;
44328;SDS011;30039;51.462;6.892;2022-09-09T16:30:15;3.28;;;1.00;;
44328;SDS011;30039;51.462;6.892;2022-09-09T16:33:01;3.08;;;0.82;;
44328;SDS011;30039;51.462;6.892;2022-09-09T16:35:46;1.45;;;0.50;;
44328;SDS011;30039;51.462;6.892;2022-09-09T16:38:32;1.80;;;0.82;;
44328;SDS011;30039;51.462;6.892;2022-09-09T16:41:18;0.75;;;0.63;;
44328;SDS011;30039;51.462;6.892;2022-09-09T16:44:06;1.63;;;0.85;;
44328;SDS011;30039;51.462;6.892;2022-09-09T16:46:52;2.50;;;0.60;;
44328;SDS011;30039;51.462;6.892;2022-09-09T16:49:38;2.42;;;1.25;;
44328;SDS011;30039;51.462;6.892;2022-09-09T16:52:24;1.63;;;0.90;;
44328;SDS011;30039;51.462;6.892;2022-09-09T16:55:09;1.75;;;0.80;;
44328;SDS011;30039;51.462;6.892;2022-09-09T16:57:55;2.22;;;0.90;;
44328;SDS011;30039;51.462;6.892;2022-09-09T17:00:40;1.73;;;1.00;;
44328;SDS011;30039;51.462;6.892;2022-09-09T17:03:26;4.30;;;1.20;;
44328;SDS011;30039;51.462;6.892;2022-09-09T17:06:14;1.65;;;0.93;;
44328;SDS011;30039;51.462;6.892;2022-09-09T17:09:03;4.43;;;1.10;;
44328;SDS011;30039;51.462;6.892;2022-09-09T17:11:49;3.17;;;1.10;;
44328;SDS011;30039;51.462;6.892;2022-09-09T17:14:37;1.85;;;0.88;;
44328;SDS011;30039;51.462;6.892;2022-09-09T17:17:23;3.83;;;1.13;;
44328;SDS011;30039;51.462;6.892;2022-09-09T17:20:09;1.17;;;1.00;;
44328;SDS011;30039;51.462;6.892;2022-09-09T17:22:55;2.95;;;1.10;;
44328;SDS011;30039;51.462;6.892;2022-09-09T17:25:41;1.77;;;0.93;;
44328;SDS011;30039;51.462;6.892;2022-09-09T17:28:28;3.67;;;1.48;;
44328;SDS011;30039;51.462;6.892;2022-09-09T17:31:17;3.83;;;1.20;;
44328;SDS011;30039;51.462;6.892;2022-09-09T17:34:03;1.80;;;0.85;;
44328;SDS011;30039;51.462;6.892;2022-09-09T17:36:50;2.53;;;0.88;;
44328;SDS011;30039;51.462;6.892;2022-09-09T17:39:36;4.32;;;1.00;;
44328;SDS011;30039;51.462;6.892;2022-09-09T17:42:21;2.38;;;1.17;;
44328;SDS011;30039;51.462;6.892;2022-09-09T17:45:07;5.18;;;2.97;;
44328;SDS011;30039;51.462;6.892;2022-09-09T17:47:54;3.08;;;1.27;;
44328;SDS011;30039;51.462;6.892;2022-09-09T17:50:40;3.33;;;0.90;;
44328;SDS011;30039;51.462;6.892;2022-09-09T17:53:25;2.78;;;1.23;;
44328;SDS011;30039;51.462;6.892;2022-09-09T17:56:12;3.72;;;1.02;;
44328;SDS011;30039;51.462;6.892;2022-09-09T17:58:58;2.90;;;1.05;;
44328;SDS011;30039;51.462;6.892;2022-09-09T18:01:45;2.22;;;1.25;;
44328;SDS011;30039;51.462;6.892;2022-09-09T18:04:31;2.58;;;1.33;;
44328;SDS011;30039;51.462;6.892;2022-09-09T18:07:17;3.13;;;1.25;;
44328;SDS011;30039;51.462;6.892;2022-09-09T18:10:04;2.33;;;1.10;;
44328;SDS011;30039;51.462;6.892;2022-09-09T18:12:51;4.47;;;1.45;;
44328;SDS011;30039;51.462;6.892;2022-09-09T18:15:37;3.95;;;1.40;;
44328;SDS011;30039;51.462;6.892;2022-09-09T18:18:23;3.00;;;1.40;;
44328;SDS011;30039;51.462;6.892;2022-09-09T18:21:08;2.58;;;1.30;;
44328;SDS011;30039;51.462;6.892;2022-09-09T18:23:54;2.78;;;1.20;;
44328;SDS011;30039;51.462;6.892;2022-09-09T18:26:40;2.00;;;1.23;;
44328;SDS011;30039;51.462;6.892;2022-09-09T18:29:26;2.92;;;1.15;;
44328;SDS011;30039;51.462;6.892;2022-09-09T18:32:12;2.53;;;1.20;;
44328;SDS011;30039;51.462;6.892;2022-09-09T18:34:59;3.28;;;1.02;;
44328;SDS011;30039;51.462;6.892;2022-09-09T18:37:48;3.60;;;1.23;;
44328;SDS011;30039;51.462;6.892;2022-09-09T18:40:33;3.50;;;1.17;;
44328;SDS011;30039;51.462;6.892;2022-09-09T18:43:19;3.97;;;1.25;;
44328;SDS011;30039;51.462;6.892;2022-09-09T18:46:05;4.30;;;1.58;;
44328;SDS011;30039;51.462;6.892;2022-09-09T18:48:51;3.40;;;1.20;;
44328;SDS011;30039;51.462;6.892;2022-09-09T18:51:37;2.42;;;1.20;;
44328;SDS011;30039;51.462;6.892;2022-09-09T18:54:26;1.90;;;0.90;;
44328;SDS011;30039;51.462;6.892;2022-09-09T18:57:13;3.00;;;0.98;;
44328;SDS011;30039;51.462;6.892;2022-09-09T18:59:59;2.97;;;1.10;;
44328;SDS011;30039;51.462;6.892;2022-09-09T19:02:47;4.22;;;1.25;;
44328;SDS011;30039;51.462;6.892;2022-09-09T19:05:37;4.13;;;1.23;;
44328;SDS011;30039;51.462;6.892;2022-09-09T19:08:23;3.47;;;1.20;;
44328;SDS011;30039;51.462;6.892;2022-09-09T19:11:11;3.65;;;1.38;;
44328;SDS011;30039;51.462;6.892;2022-09-09T19:13:58;3.35;;;1.33;;
44328;SDS011;30039;51.462;6.892;2022-09-09T19:16:44;3.03;;;1.20;;